Terminal Aerodrome Forecast
Issued by NWS

Home | Current Version | Previous Version | Text Only | Print | Product List | Glossary On
Versions: 1 2 3 4 5 6 7 8 9 10 11 12 13 14 15 16 17 18 19 20 21 22
000
FTUS43 KMPX 261700 RRA
TAFRWF
TAF
KRWF 261739Z 2618/2718 35010KT P6SM OVC015
     FM270200 34009KT 4SM -SN BR SCT008 OVC015
     FM270400 34009KT 2SM -SN BR VV009
     FM271000 32010KT 5SM -SN BR OVC012
     FM271400 30008KT P6SM SCT015 OVC040=

USA.gov is the U.S. government's official web portal to all federal, state and local government web resources and services.